createdAt,value
2017-04-10T00:00:15.189Z,56.17
2017-04-10T00:00:41.673Z,55.86
2017-04-10T00:01:03.371Z,55.77
2017-04-10T00:01:25.121Z,55.88
2017-04-10T00:01:51.603Z,55.87
2017-04-10T00:02:13.316Z,55.69
2017-04-10T00:02:35.021Z,55.83
2017-04-10T00:03:01.493Z,55.92
2017-04-10T00:03:23.236Z,55.86
2017-04-10T00:03:54.517Z,55.90
2017-04-10T00:04:16.190Z,55.78
2017-04-10T00:04:42.673Z,55.78
2017-04-10T00:05:06.939Z,55.66
2017-04-10T00:06:05.103Z,55.80
2017-04-10T00:06:26.803Z,55.88
2017-04-10T00:06:58.073Z,55.87
2017-04-10T00:07:19.836Z,55.94
2017-04-10T00:07:46.315Z,55.84
2017-04-10T00:08:08.031Z,55.65
2017-04-10T00:08:29.725Z,55.47
2017-04-10T00:08:51.442Z,55.48
2017-04-10T00:09:13.271Z,55.68
2017-04-10T00:09:34.970Z,55.88
2017-04-10T00:09:56.674Z,55.84
2017-04-10T00:10:18.384Z,55.95
2017-04-10T00:10:44.875Z,55.93
2017-04-10T00:11:06.567Z,55.93
2017-04-10T00:11:28.276Z,55.89
2017-04-10T00:11:54.753Z,56.10
2017-04-10T00:12:16.442Z,55.92
2017-04-10T00:12:47.697Z,56.03
2017-04-10T00:13:09.397Z,55.88
2017-04-10T00:14:07.695Z,56.38
2017-04-10T00:14:34.169Z,56.41
2017-04-10T00:14:55.874Z,56.33
2017-04-10T00:15:17.575Z,56.11
2017-04-10T00:15:44.054Z,55.93
2017-04-10T00:16:05.748Z,55.65
2017-04-10T00:16:32.223Z,55.35
2017-04-10T00:16:53.941Z,55.33
2017-04-10T00:17:15.642Z,55.21
2017-04-10T00:17:42.141Z,55.43
2017-04-10T00:18:03.859Z,55.55
2017-04-10T00:18:25.575Z,55.49
2017-04-10T00:18:52.055Z,55.47
2017-04-10T00:19:13.799Z,55.29
2017-04-10T00:19:40.283Z,55.51
2017-04-10T00:20:01.965Z,55.75
2017-04-10T00:20:23.664Z,55.88
2017-04-10T00:20:45.386Z,56.00
2017-04-10T00:21:07.076Z,55.90
2017-04-10T00:21:38.328Z,55.94
2017-04-10T00:22:00.065Z,56.03
2017-04-10T00:22:26.579Z,55.84
2017-04-10T00:22:48.304Z,55.88
2017-04-10T00:23:10.003Z,56.18
2017-04-10T00:23:36.468Z,56.51
2017-04-10T00:23:58.164Z,56.18
2017-04-10T00:24:24.646Z,56.08
2017-04-10T00:24:46.355Z,55.71
2017-04-10T00:25:08.045Z,55.81
2017-04-10T00:25:34.517Z,55.96
2017-04-10T00:25:56.232Z,56.03
2017-04-10T00:26:22.708Z,55.90
2017-04-10T00:26:44.413Z,55.60
2017-04-10T00:27:10.894Z,55.58
2017-04-10T00:27:34.813Z,55.84
2017-04-10T00:27:56.522Z,56.13
2017-04-10T00:28:23.002Z,56.26
2017-04-10T00:28:44.706Z,56.40
2017-04-10T00:29:06.487Z,56.61
2017-04-10T00:29:28.193Z,56.88
2017-04-10T00:29:49.923Z,56.80
2017-04-10T00:30:21.194Z,56.79
2017-04-10T00:30:42.879Z,56.70
2017-04-10T00:31:41.186Z,56.92
2017-04-10T00:32:02.889Z,57.21
2017-04-10T00:32:24.629Z,57.43
2017-04-10T00:32:51.110Z,56.97
2017-04-10T00:33:12.796Z,57.51
2017-04-10T00:33:34.501Z,57.46
2017-04-10T00:34:37.010Z,57.25
2017-04-10T00:35:03.478Z,57.50
2017-04-10T00:36:01.757Z,56.72
2017-04-10T00:36:23.461Z,56.83
2017-04-10T00:37:21.769Z,56.92
2017-04-10T00:37:48.254Z,57.34
2017-04-10T00:38:19.551Z,57.28
2017-04-10T00:38:41.247Z,57.21
2017-04-10T00:39:07.740Z,57.42
2017-04-10T00:39:29.503Z,57.35
2017-04-10T00:39:51.191Z,57.16
2017-04-10T00:40:12.895Z,57.24
2017-04-10T00:40:34.602Z,57.45
2017-04-10T00:40:56.314Z,57.64
2017-04-10T00:41:27.580Z,58.13
2017-04-10T00:41:52.146Z,58.11
2017-04-10T00:42:18.637Z,58.19
2017-04-10T00:42:40.333Z,58.21
2017-04-10T00:43:11.584Z,58.04
2017-04-10T00:43:33.292Z,57.91
2017-04-10T00:43:54.982Z,57.78
2017-04-10T00:44:21.471Z,57.73
2017-04-10T00:44:43.162Z,57.49
2017-04-10T00:45:04.858Z,57.32
2017-04-10T00:45:31.329Z,57.23
2017-04-10T00:45:53.032Z,57.22
2017-04-10T00:46:19.511Z,57.44
2017-04-10T00:46:41.200Z,57.72
2017-04-10T00:47:02.906Z,57.91
2017-04-10T00:47:24.681Z,57.81
2017-04-10T00:47:46.394Z,57.59
2017-04-10T00:48:12.867Z,57.27
2017-04-10T00:48:34.560Z,57.24
2017-04-10T00:48:56.348Z,57.36
2017-04-10T00:49:18.051Z,57.38
2017-04-10T00:49:39.742Z,57.21
2017-04-10T00:50:01.442Z,57.09
2017-04-10T00:50:23.239Z,57.27
2017-04-10T00:50:44.936Z,57.09
2017-04-10T00:51:06.631Z,57.08
2017-04-10T00:51:28.331Z,57.17
2017-04-10T00:51:50.113Z,57.56
2017-04-10T00:52:11.805Z,57.69
2017-04-10T00:52:33.531Z,57.68
2017-04-10T00:52:55.240Z,57.45
2017-04-10T00:53:17.025Z,57.35
2017-04-10T00:53:38.722Z,57.29
2017-04-10T00:54:00.429Z,57.26
2017-04-10T00:54:22.132Z,57.37
2017-04-10T00:54:53.399Z,57.55
2017-04-10T00:55:15.180Z,57.22
2017-04-10T00:55:36.883Z,57.28
2017-04-10T00:56:03.377Z,57.08
2017-04-10T00:56:25.162Z,57.40
2017-04-10T00:56:46.859Z,57.30
2017-04-10T00:57:13.353Z,56.87
2017-04-10T00:57:35.105Z,56.94
2017-04-10T00:58:01.678Z,57.18
2017-04-10T00:58:23.393Z,57.69
2017-04-10T00:58:49.870Z,57.88
2017-04-10T00:59:11.566Z,58.10
2017-04-10T00:59:38.145Z,58.01
2017-04-10T00:59:59.838Z,57.74
2017-04-10T01:00:21.526Z,57.71
2017-04-10T01:00:43.237Z,57.47
2017-04-10T01:01:05.020Z,57.37
2017-04-10T01:01:26.712Z,57.39
2017-04-10T01:01:48.415Z,57.23
2017-04-10T01:02:10.116Z,57.24
2017-04-10T01:02:31.891Z,57.15
2017-04-10T01:02:53.596Z,57.03
2017-04-10T01:03:24.852Z,57.45
2017-04-10T01:03:46.622Z,57.52
2017-04-10T01:04:13.093Z,57.95
2017-04-10T01:04:34.785Z,58.02
2017-04-10T01:04:56.554Z,58.07
2017-04-10T01:05:18.264Z,57.99
2017-04-10T01:05:39.953Z,57.76
2017-04-10T01:06:42.528Z,58.43
2017-04-10T01:07:04.225Z,58.55
2017-04-10T01:07:25.922Z,58.53
2017-04-10T01:07:52.507Z,58.37
2017-04-10T01:08:14.194Z,58.64
2017-04-10T01:08:35.902Z,58.72
2017-04-10T01:09:07.171Z,59.36
2017-04-10T01:09:28.961Z,59.31
2017-04-10T01:09:50.662Z,59.19
2017-04-10T01:10:12.363Z,58.89
2017-04-10T01:10:34.158Z,58.70
2017-04-10T01:10:55.850Z,58.70
2017-04-10T01:11:22.329Z,58.34
2017-04-10T01:11:44.111Z,58.49
2017-04-10T01:12:05.807Z,58.15
2017-04-10T01:12:32.295Z,58.05
2017-04-10T01:12:54.078Z,58.01
2017-04-10T01:13:52.382Z,57.46
2017-04-10T01:14:14.171Z,57.69
2017-04-10T01:15:21.454Z,58.47
2017-04-10T01:15:43.246Z,58.45
2017-04-10T01:16:41.567Z,58.96
2017-04-10T01:17:03.344Z,59.20
2017-04-10T01:17:25.052Z,59.41
2017-04-10T01:17:46.752Z,59.61
2017-04-10T01:18:08.444Z,59.95
2017-04-10T01:18:30.280Z,60.16
2017-04-10T01:18:56.773Z,60.07
2017-04-10T01:19:18.465Z,59.90
2017-04-10T01:19:40.240Z,59.66
2017-04-10T01:20:06.724Z,59.18
2017-04-10T01:20:28.426Z,59.13
2017-04-10T01:20:50.214Z,59.00
2017-04-10T01:21:11.907Z,58.82
2017-04-10T01:21:33.604Z,58.68
2017-04-10T01:21:55.305Z,58.30
2017-04-10T01:22:21.861Z,58.39
2017-04-10T01:22:43.548Z,58.41
2017-04-10T01:23:10.030Z,58.08
2017-04-10T01:23:31.850Z,58.29
2017-04-10T01:23:53.554Z,58.76
2017-04-10T01:24:20.032Z,58.93
2017-04-10T01:24:41.727Z,59.48
2017-04-10T01:25:12.993Z,59.86
2017-04-10T01:25:34.767Z,59.52
2017-04-10T01:25:56.458Z,59.51
2017-04-10T01:26:22.938Z,59.63
2017-04-10T01:26:44.738Z,59.28
2017-04-10T01:27:06.426Z,58.91
2017-04-10T01:27:32.900Z,58.32
2017-04-10T01:27:54.709Z,58.64
2017-04-10T01:28:16.407Z,58.82
2017-04-10T01:28:38.136Z,59.22
2017-04-10T01:28:59.831Z,59.15
2017-04-10T01:29:21.602Z,59.29
2017-04-10T01:29:43.302Z,59.37
2017-04-10T01:30:04.996Z,59.58
2017-04-10T01:30:31.569Z,59.52
2017-04-10T01:30:53.257Z,59.68
2017-04-10T01:31:14.960Z,59.80
2017-04-10T01:31:41.433Z,59.51
2017-04-10T01:32:03.194Z,59.39
2017-04-10T01:32:29.664Z,59.50
2017-04-10T01:32:51.387Z,59.41
2017-04-10T01:33:13.172Z,59.22
2017-04-10T01:33:34.876Z,59.15
2017-04-10T01:33:56.581Z,59.25
2017-04-10T01:34:18.287Z,59.22
2017-04-10T01:34:44.852Z,59.33
2017-04-10T01:35:06.557Z,59.20
2017-04-10T01:35:28.257Z,59.00
2017-04-10T01:35:49.959Z,59.04
2017-04-10T01:36:11.751Z,58.98
2017-04-10T01:36:33.458Z,58.93
2017-04-10T01:36:55.164Z,59.08
2017-04-10T01:37:16.852Z,58.97
2017-04-10T01:37:38.645Z,59.04
2017-04-10T01:38:00.346Z,59.29
2017-04-10T01:38:22.037Z,58.93
2017-04-10T01:38:43.723Z,59.02
2017-04-10T01:39:05.511Z,58.75
2017-04-10T01:39:27.214Z,58.85
2017-04-10T01:39:48.899Z,59.16
2017-04-10T01:40:10.694Z,59.07
2017-04-10T01:40:32.379Z,58.82
2017-04-10T01:40:54.185Z,58.84
2017-04-10T01:41:25.441Z,58.67
2017-04-10T01:41:47.217Z,58.71
2017-04-10T01:42:08.912Z,58.80
2017-04-10T01:42:30.618Z,58.79
2017-04-10T01:43:02.367Z,58.77
2017-04-10T01:43:24.074Z,58.75
2017-04-10T01:44:22.478Z,58.67
2017-04-10T01:44:44.176Z,58.35
2017-04-10T01:45:05.873Z,58.38
2017-04-10T01:45:27.571Z,58.60
2017-04-10T01:45:49.351Z,58.90
2017-04-10T01:46:15.826Z,59.03
2017-04-10T01:46:37.518Z,59.17
2017-04-10T01:47:08.777Z,59.11
2017-04-10T01:47:30.471Z,59.28
2017-04-10T01:48:01.733Z,59.67
2017-04-10T01:48:23.503Z,59.84
2017-04-10T01:48:54.755Z,59.76
2017-04-10T01:49:16.451Z,59.60
2017-04-10T01:50:14.891Z,59.05
2017-04-10T01:50:46.148Z,58.79
2017-04-10T01:51:07.931Z,58.62
2017-04-10T01:51:29.625Z,58.53
2017-04-10T01:51:56.087Z,58.46
2017-04-10T01:52:17.775Z,58.36
2017-04-10T01:53:42.659Z,58.00
2017-04-10T01:54:13.920Z,57.99
2017-04-10T01:54:35.698Z,58.09
2017-04-10T01:54:57.421Z,58.04
2017-04-10T01:55:19.126Z,58.04
2017-04-10T01:55:40.909Z,58.00
2017-04-10T01:56:07.385Z,58.19
2017-04-10T01:56:29.074Z,58.35
2017-04-10T01:56:50.768Z,58.45
2017-04-10T01:57:12.564Z,58.28
2017-04-10T01:57:34.257Z,57.88
2017-04-10T01:58:41.632Z,58.55
2017-04-10T01:59:03.345Z,58.56
2017-04-10T01:59:25.072Z,58.50
2017-04-10T01:59:51.546Z,58.36
2017-04-10T02:00:13.323Z,58.42
2017-04-10T02:00:35.018Z,58.20
2017-04-10T02:01:01.496Z,58.50
2017-04-10T02:01:23.203Z,58.17
2017-04-10T02:01:54.453Z,58.18
2017-04-10T02:02:16.144Z,58.08
2017-04-10T02:02:37.924Z,57.77
2017-04-10T02:02:59.627Z,57.69
2017-04-10T02:03:21.324Z,57.82
2017-04-10T02:03:43.017Z,58.16
2017-04-10T02:04:09.503Z,58.13
2017-04-10T02:04:31.300Z,58.10
2017-04-10T02:04:52.992Z,58.01
2017-04-10T02:05:14.757Z,57.69
2017-04-10T02:05:36.563Z,57.81
2017-04-10T02:06:03.068Z,57.58
2017-04-10T02:06:24.765Z,57.68
2017-04-10T02:06:46.549Z,57.93
2017-04-10T02:07:08.258Z,58.03
2017-04-10T02:07:29.953Z,57.71
2017-04-10T02:07:56.442Z,57.78
2017-04-10T02:08:18.241Z,57.93
2017-04-10T02:08:39.974Z,57.60
2017-04-10T02:09:06.457Z,57.66
2017-04-10T02:09:28.287Z,57.57
2017-04-10T02:09:49.994Z,57.56
2017-04-10T02:10:11.698Z,57.18
2017-04-10T02:10:33.480Z,57.08
2017-04-10T02:10:59.952Z,56.66
2017-04-10T02:11:21.636Z,56.43
2017-04-10T02:11:43.335Z,56.25
2017-04-10T02:12:05.065Z,56.08
2017-04-10T02:12:26.764Z,55.78
2017-04-10T02:12:58.023Z,55.76
2017-04-10T02:13:19.814Z,55.69
2017-04-10T02:13:51.078Z,55.85
2017-04-10T02:14:12.762Z,55.67
2017-04-10T02:14:34.486Z,55.85
2017-04-10T02:15:00.962Z,55.83
2017-04-10T02:15:22.658Z,55.68
2017-04-10T02:15:44.452Z,55.34
2017-04-10T02:16:06.154Z,55.00
2017-04-10T02:16:27.847Z,55.03
2017-04-10T02:16:49.548Z,55.56
2017-04-10T02:17:11.356Z,55.20
2017-04-10T02:17:33.041Z,55.23
2017-04-10T02:17:54.749Z,54.92
2017-04-10T02:18:21.230Z,55.38
2017-04-10T02:18:43.016Z,55.44
2017-04-10T02:19:09.493Z,55.33
2017-04-10T02:19:31.185Z,55.39
2017-04-10T02:19:57.763Z,55.33
2017-04-10T02:20:19.453Z,55.29
2017-04-10T02:20:45.930Z,54.99
2017-04-10T02:21:07.748Z,55.22
2017-04-10T02:21:29.427Z,55.12
2017-04-10T02:21:55.900Z,54.91
2017-04-10T02:22:17.586Z,54.73
2017-04-10T02:22:39.382Z,54.84
2017-04-10T02:23:05.869Z,54.64
2017-04-10T02:23:27.582Z,54.81
2017-04-10T02:23:58.828Z,54.82
2017-04-10T02:24:20.566Z,54.57
2017-04-10T02:24:47.045Z,54.57
2017-04-10T02:25:08.738Z,54.66
2017-04-10T02:25:30.530Z,54.84
2017-04-10T02:25:52.242Z,54.52
2017-04-10T02:26:13.992Z,54.45
2017-04-10T02:26:35.663Z,54.50
2017-04-10T02:27:06.907Z,54.42
2017-04-10T02:27:28.691Z,54.73
2017-04-10T02:27:50.389Z,54.76
2017-04-10T02:28:12.299Z,54.46
2017-04-10T02:28:34.100Z,54.25
2017-04-10T02:29:00.572Z,54.34
2017-04-10T02:29:22.383Z,54.34
2017-04-10T02:29:44.091Z,54.36
2017-04-10T02:30:05.816Z,54.55
2017-04-10T02:30:27.601Z,54.18
2017-04-10T02:30:49.303Z,54.09
2017-04-10T02:31:11.019Z,54.23
2017-04-10T02:31:32.759Z,54.09
2017-04-10T02:32:04.010Z,54.01
2017-04-10T02:32:25.793Z,54.33
2017-04-10T02:32:52.263Z,54.12
2017-04-10T02:33:13.953Z,54.07
2017-04-10T02:33:35.643Z,54.08
2017-04-10T02:34:06.906Z,54.10
2017-04-10T02:34:28.611Z,54.12
2017-04-10T02:34:55.115Z,54.08
2017-04-10T02:35:16.899Z,53.99
2017-04-10T02:35:38.592Z,54.37
2017-04-10T02:36:00.294Z,54.54
2017-04-10T02:36:22.071Z,54.71
2017-04-10T02:36:53.316Z,54.57
2017-04-10T02:37:15.012Z,54.71
2017-04-10T02:38:13.424Z,55.03
2017-04-10T02:38:35.130Z,55.01
2017-04-10T02:39:06.389Z,55.04
2017-04-10T02:39:28.170Z,55.22
2017-04-10T02:39:59.417Z,54.95
2017-04-10T02:40:21.201Z,54.64
2017-04-10T02:41:19.524Z,54.74
2017-04-10T02:41:46.089Z,54.73
2017-04-10T02:42:07.798Z,54.75
2017-04-10T02:42:29.495Z,54.49
2017-04-10T02:42:51.194Z,54.50
2017-04-10T02:43:49.598Z,54.24
2017-04-10T02:44:16.094Z,54.56
2017-04-10T02:44:47.352Z,54.92
2017-04-10T02:45:09.079Z,54.88
2017-04-10T02:45:40.335Z,54.56
2017-04-10T02:46:02.117Z,54.59
2017-04-10T02:46:23.822Z,54.49
2017-04-10T02:46:50.309Z,54.70
2017-04-10T02:47:12.101Z,54.69
2017-04-10T02:47:33.809Z,54.63
2017-04-10T02:48:05.056Z,54.69
2017-04-10T02:48:26.852Z,54.76
2017-04-10T02:49:29.355Z,55.20
2017-04-10T02:49:51.139Z,55.32
2017-04-10T02:50:12.870Z,55.06
2017-04-10T02:51:11.265Z,55.71
2017-04-10T02:51:32.965Z,55.59
2017-04-10T02:51:54.684Z,55.23
2017-04-10T02:52:16.386Z,55.19
2017-04-10T02:52:38.161Z,55.58
2017-04-10T02:53:40.673Z,55.75
2017-04-10T02:54:02.452Z,55.86
2017-04-10T02:54:24.168Z,55.95
2017-04-10T02:54:45.889Z,55.96
2017-04-10T02:55:12.486Z,55.92
2017-04-10T02:55:34.197Z,55.90
2017-04-10T02:55:55.868Z,55.73
2017-04-10T02:56:17.590Z,55.73
2017-04-10T02:56:39.383Z,55.75
2017-04-10T02:57:01.080Z,55.75
2017-04-10T02:57:32.326Z,55.93
2017-04-10T02:57:54.102Z,55.62
2017-04-10T02:58:20.584Z,55.25
2017-04-10T02:58:42.315Z,55.03
2017-04-10T02:59:08.787Z,54.84
2017-04-10T02:59:30.575Z,54.88
2017-04-10T02:59:52.342Z,55.29
2017-04-10T03:00:14.029Z,55.46
2017-04-10T03:00:35.827Z,55.26
2017-04-10T03:01:07.083Z,55.29
2017-04-10T03:01:28.779Z,55.07
2017-04-10T03:01:50.572Z,55.61
2017-04-10T03:02:12.290Z,55.64
2017-04-10T03:02:34.004Z,55.97
2017-04-10T03:02:55.699Z,55.95
2017-04-10T03:03:17.497Z,56.19
2017-04-10T03:03:39.202Z,56.25
2017-04-10T03:04:05.694Z,56.33
2017-04-10T03:04:27.489Z,56.12
2017-04-10T03:04:49.178Z,55.68
2017-04-10T03:05:10.888Z,55.43
2017-04-10T03:05:42.139Z,55.38
2017-04-10T03:06:03.915Z,55.38
2017-04-10T03:06:30.398Z,55.36
2017-04-10T03:06:52.099Z,55.64
2017-04-10T03:07:18.685Z,55.75
2017-04-10T03:07:40.379Z,55.66
2017-04-10T03:08:06.862Z,55.29
2017-04-10T03:08:28.556Z,55.33
2017-04-10T03:08:50.351Z,55.46
2017-04-10T03:09:16.833Z,55.40
2017-04-10T03:09:38.532Z,55.55
2017-04-10T03:10:00.220Z,55.66
2017-04-10T03:11:02.785Z,55.80
2017-04-10T03:11:24.493Z,55.98
2017-04-10T03:11:46.205Z,55.87
2017-04-10T03:12:12.679Z,55.72
2017-04-10T03:12:34.464Z,55.37
2017-04-10T03:13:00.950Z,55.18
2017-04-10T03:13:22.754Z,55.28
2017-04-10T03:13:44.546Z,55.39
2017-04-10T03:14:06.269Z,55.43
2017-04-10T03:14:28.046Z,55.36
2017-04-10T03:14:54.525Z,55.00
2017-04-10T03:15:16.222Z,54.99
2017-04-10T03:15:38.057Z,55.01
2017-04-10T03:15:59.768Z,54.90
2017-04-10T03:16:21.469Z,54.99
2017-04-10T03:16:43.182Z,55.36
2017-04-10T03:17:04.965Z,55.37
2017-04-10T03:17:26.697Z,55.08
2017-04-10T03:17:48.415Z,54.89
2017-04-10T03:18:10.192Z,54.97
2017-04-10T03:18:31.891Z,55.21
2017-04-10T03:18:53.663Z,55.28
2017-04-10T03:19:15.370Z,54.99
2017-04-10T03:19:37.077Z,55.26
2017-04-10T03:19:58.773Z,55.65
2017-04-10T03:20:20.555Z,55.69
2017-04-10T03:20:42.276Z,55.91
2017-04-10T03:21:04.003Z,56.00
2017-04-10T03:21:35.262Z,56.35
2017-04-10T03:21:57.086Z,56.24
2017-04-10T03:22:18.804Z,56.18
2017-04-10T03:22:40.503Z,56.06
2017-04-10T03:23:02.289Z,55.86
2017-04-10T03:23:33.536Z,56.08
2017-04-10T03:23:55.233Z,55.89
2017-04-10T03:24:17.023Z,55.88
2017-04-10T03:24:38.722Z,55.57
2017-04-10T03:25:00.416Z,55.51
2017-04-10T03:25:22.106Z,55.63
2017-04-10T03:25:43.904Z,55.67
2017-04-10T03:26:05.619Z,55.96
2017-04-10T03:26:27.306Z,56.33
2017-04-10T03:26:49.017Z,56.18
2017-04-10T03:27:10.882Z,56.04
2017-04-10T03:27:32.587Z,55.88
2017-04-10T03:27:54.300Z,56.28
2017-04-10T03:28:16.014Z,56.43
2017-04-10T03:28:37.796Z,56.20
2017-04-10T03:29:04.273Z,55.98
2017-04-10T03:29:25.979Z,56.32
2017-04-10T03:29:52.457Z,56.32
2017-04-10T03:30:14.248Z,56.34
2017-04-10T03:30:40.734Z,56.55
2017-04-10T03:31:02.570Z,56.73
2017-04-10T03:31:24.301Z,56.73
2017-04-10T03:31:46.000Z,56.82
2017-04-10T03:32:07.699Z,56.90
2017-04-10T03:32:29.479Z,56.54
2017-04-10T03:32:55.960Z,56.42
2017-04-10T03:33:17.657Z,56.30
2017-04-10T03:33:39.341Z,56.36
2017-04-10T03:34:10.598Z,56.31
2017-04-10T03:34:32.383Z,56.21
2017-04-10T03:34:54.085Z,56.19
2017-04-10T03:35:15.787Z,56.07
2017-04-10T03:35:37.565Z,56.14
2017-04-10T03:36:04.047Z,56.25
2017-04-10T03:36:25.769Z,56.55
2017-04-10T03:36:57.023Z,56.44
2017-04-10T03:37:18.819Z,56.30
2017-04-10T03:37:40.541Z,56.36
2017-04-10T03:38:02.255Z,56.40
2017-04-10T03:38:24.049Z,56.37
2017-04-10T03:38:55.308Z,56.28
2017-04-10T03:39:16.996Z,56.54
2017-04-10T03:39:38.773Z,56.64
2017-04-10T03:40:00.473Z,56.47
2017-04-10T03:40:22.159Z,56.37
2017-04-10T03:40:48.733Z,56.26
2017-04-10T03:41:10.450Z,56.30
2017-04-10T03:42:08.849Z,55.88
2017-04-10T03:42:30.564Z,55.90
2017-04-10T03:42:52.253Z,55.90
2017-04-10T03:43:50.636Z,55.79
2017-04-10T03:44:12.330Z,56.05
2017-04-10T03:44:34.042Z,56.01
2017-04-10T03:45:00.598Z,56.02
2017-04-10T03:45:22.316Z,56.38
2017-04-10T03:45:48.793Z,56.56
2017-04-10T03:46:10.577Z,56.68
2017-04-10T03:46:32.300Z,56.51
2017-04-10T03:46:53.997Z,56.57
2017-04-10T03:47:15.723Z,56.93
2017-04-10T03:47:37.518Z,57.04
2017-04-10T03:47:59.214Z,56.69
2017-04-10T03:48:20.911Z,56.48
2017-04-10T03:48:42.635Z,56.51
2017-04-10T03:49:13.903Z,56.23
2017-04-10T03:49:35.682Z,55.95
2017-04-10T03:49:57.380Z,55.94
2017-04-10T03:50:23.848Z,55.64
2017-04-10T03:50:45.629Z,55.95
2017-04-10T03:51:07.329Z,56.03
2017-04-10T03:51:33.837Z,56.14
2017-04-10T03:51:55.641Z,56.57
2017-04-10T03:52:26.891Z,56.81
2017-04-10T03:52:48.573Z,56.91
2017-04-10T03:53:10.371Z,56.82
2017-04-10T03:53:36.839Z,56.89
2017-04-10T03:53:58.534Z,57.34
2017-04-10T03:54:20.318Z,57.26
2017-04-10T03:54:46.794Z,57.23
2017-04-10T03:55:08.488Z,57.54
2017-04-10T03:55:30.187Z,57.75
2017-04-10T03:55:52.001Z,58.27
2017-04-10T03:56:13.709Z,58.34
2017-04-10T03:56:35.473Z,58.19
2017-04-10T03:57:02.054Z,57.74
2017-04-10T03:57:23.756Z,57.70
2017-04-10T03:58:22.164Z,57.74
2017-04-10T03:58:43.876Z,57.80
2017-04-10T03:59:10.360Z,57.65
2017-04-10T03:59:32.148Z,57.85
2017-04-10T03:59:53.842Z,57.91
2017-04-10T04:00:20.320Z,57.98
2017-04-10T04:00:42.048Z,58.05
2017-04-10T04:01:08.560Z,58.02
2017-04-10T04:01:35.022Z,58.23
2017-04-10T04:01:56.727Z,58.50
2017-04-10T04:02:18.427Z,58.35
2017-04-10T04:02:40.212Z,58.26
2017-04-10T04:03:11.458Z,58.36
2017-04-10T04:03:33.173Z,58.50
2017-04-10T04:03:54.954Z,58.44
2017-04-10T04:04:16.650Z,58.22
2017-04-10T04:04:38.346Z,57.93
2017-04-10T04:05:00.037Z,57.64
2017-04-10T04:05:21.829Z,57.92
2017-04-10T04:05:43.524Z,57.92
2017-04-10T04:06:09.998Z,58.12
2017-04-10T04:06:31.785Z,58.19
2017-04-10T04:06:58.272Z,57.86
2017-04-10T04:07:19.974Z,58.18
2017-04-10T04:07:41.757Z,58.21
2017-04-10T04:08:03.452Z,58.09
2017-04-10T04:08:25.155Z,58.25
2017-04-10T04:08:46.849Z,58.46
2017-04-10T04:09:08.642Z,58.60
2017-04-10T04:09:35.117Z,58.61
2017-04-10T04:09:56.815Z,58.58
2017-04-10T04:10:18.606Z,58.35
2017-04-10T04:10:40.308Z,58.46
2017-04-10T04:11:01.998Z,58.55
2017-04-10T04:11:28.461Z,58.59
2017-04-10T04:11:50.156Z,58.53
2017-04-10T04:12:16.708Z,58.76
2017-04-10T04:12:38.401Z,58.89
2017-04-10T04:13:00.173Z,59.19
2017-04-10T04:13:21.872Z,59.12
2017-04-10T04:13:43.573Z,58.97
2017-04-10T04:14:05.259Z,58.90
2017-04-10T04:14:27.041Z,58.88
2017-04-10T04:14:53.517Z,58.84
2017-04-10T04:15:15.243Z,58.97
2017-04-10T04:15:37.002Z,59.08
2017-04-10T04:15:58.710Z,58.95
2017-04-10T04:16:20.397Z,59.27
2017-04-10T04:16:42.094Z,59.76
2017-04-10T04:17:03.870Z,60.10
2017-04-10T04:17:25.623Z,59.82
2017-04-10T04:17:47.323Z,59.49
2017-04-10T04:18:09.037Z,59.39
2017-04-10T04:18:30.759Z,59.29
2017-04-10T04:18:57.242Z,59.19
2017-04-10T04:19:18.927Z,59.19
2017-04-10T04:19:40.701Z,59.14
2017-04-10T04:20:02.400Z,59.15
2017-04-10T04:20:28.878Z,59.29
2017-04-10T04:20:50.602Z,59.17
2017-04-10T04:21:12.388Z,59.20
2017-04-10T04:22:19.664Z,59.21
2017-04-10T04:22:41.481Z,59.16
2017-04-10T04:23:03.184Z,58.97
2017-04-10T04:23:24.883Z,59.14
2017-04-10T04:23:46.574Z,59.51
2017-04-10T04:24:08.350Z,59.80
2017-04-10T04:24:30.048Z,59.82
2017-04-10T04:24:51.741Z,60.05
2017-04-10T04:25:13.546Z,59.94
2017-04-10T04:25:35.340Z,59.76
2017-04-10T04:25:57.133Z,59.68
2017-04-10T04:26:28.393Z,59.37
2017-04-10T04:26:50.164Z,59.09
2017-04-10T04:27:16.743Z,59.44
2017-04-10T04:27:38.528Z,59.79
2017-04-10T04:28:00.339Z,60.06
2017-04-10T04:29:07.631Z,59.21
2017-04-10T04:29:30.391Z,58.70
2017-04-10T04:30:01.651Z,58.37
2017-04-10T04:30:23.365Z,58.39
2017-04-10T04:31:58.349Z,58.77
2017-04-10T04:32:20.129Z,58.96
2017-04-10T04:32:51.376Z,59.08
2017-04-10T04:33:13.158Z,58.93
2017-04-10T04:33:39.629Z,59.07
2017-04-10T04:34:01.503Z,59.38
2017-04-10T04:34:23.288Z,59.71
2017-04-10T04:34:44.996Z,59.33
2017-04-10T04:35:06.776Z,59.04
2017-04-10T04:35:28.583Z,58.62
2017-04-10T04:35:55.064Z,58.27
2017-04-10T04:36:16.848Z,59.32
2017-04-10T04:37:15.160Z,60.42
2017-04-10T04:37:36.945Z,60.04
2017-04-10T04:38:39.562Z,59.93
2017-04-10T04:39:01.350Z,60.06
2017-04-10T04:39:27.841Z,60.03
2017-04-10T04:39:49.541Z,59.97
2017-04-10T04:40:11.233Z,59.92
2017-04-10T04:40:37.711Z,60.64
2017-04-10T04:40:59.491Z,60.69
2017-04-10T04:41:21.364Z,60.50
2017-04-10T04:41:47.924Z,60.43
2017-04-10T04:42:09.711Z,60.85
2017-04-10T04:42:36.195Z,60.99
2017-04-10T04:42:57.973Z,60.80
2017-04-10T04:43:24.459Z,61.17
2017-04-10T04:43:46.259Z,60.77
2017-04-10T04:44:17.534Z,60.71
2017-04-10T04:44:39.229Z,61.07
2017-04-10T04:45:01.115Z,60.90
2017-04-10T04:46:03.605Z,60.91
2017-04-10T04:46:25.384Z,60.97
2017-04-10T04:46:47.169Z,60.78
2017-04-10T04:47:13.666Z,60.52
2017-04-10T04:47:35.374Z,60.75
2017-04-10T04:48:06.724Z,60.43
2017-04-10T04:48:28.427Z,60.53
2017-04-10T04:48:59.682Z,60.49
2017-04-10T04:49:21.375Z,60.30
2017-04-10T04:49:47.860Z,60.07
2017-04-10T04:50:09.563Z,59.77
2017-04-10T04:50:31.268Z,59.88
2017-04-10T04:51:02.508Z,59.83
2017-04-10T04:51:24.205Z,59.48
2017-04-10T04:51:45.894Z,59.72
2017-04-10T04:52:17.148Z,60.48
2017-04-10T04:52:38.928Z,60.84
2017-04-10T04:53:00.621Z,60.79
2017-04-10T04:53:27.097Z,60.58
2017-04-10T04:53:48.868Z,60.31
2017-04-10T04:54:20.134Z,60.18
2017-04-10T04:54:41.825Z,60.29
2017-04-10T04:55:03.538Z,60.39
2017-04-10T04:55:34.789Z,60.21
2017-04-10T04:55:56.489Z,60.84
2017-04-10T04:56:18.198Z,61.52
2017-04-10T04:56:44.683Z,61.67
2017-04-10T04:57:06.398Z,61.36
2017-04-10T04:58:09.006Z,61.12
2017-04-10T04:59:07.347Z,60.91
2017-04-10T05:00:09.945Z,60.88
2017-04-10T05:01:17.309Z,60.64
2017-04-10T05:01:39.088Z,60.30
2017-04-10T05:02:00.801Z,60.32
2017-04-10T05:02:32.052Z,60.41
2017-04-10T05:02:56.513Z,60.75
2017-04-10T05:03:59.106Z,60.20
2017-04-10T05:04:20.827Z,60.00
2017-04-10T05:04:47.412Z,60.14
2017-04-10T05:05:09.136Z,60.40
2017-04-10T05:05:30.834Z,60.20
2017-04-10T05:05:57.406Z,60.24
2017-04-10T05:06:19.100Z,59.88
2017-04-10T05:06:40.816Z,59.75
2017-04-10T05:07:02.694Z,59.60
2017-04-10T05:07:24.494Z,59.80
2017-04-10T05:07:46.182Z,59.96
2017-04-10T05:08:12.836Z,60.58
2017-04-10T05:08:34.525Z,60.70
2017-04-10T05:08:56.391Z,60.49
2017-04-10T05:09:22.884Z,59.92
2017-04-10T05:09:44.658Z,59.74
2017-04-10T05:10:47.241Z,59.60
2017-04-10T05:11:09.020Z,59.31
2017-04-10T05:11:35.606Z,59.34
2017-04-10T05:11:57.303Z,59.49
2017-04-10T05:12:19.189Z,59.47
2017-04-10T05:12:50.443Z,59.78
2017-04-10T05:13:12.144Z,59.81
2017-04-10T05:13:33.862Z,59.86
2017-04-10T05:14:05.130Z,60.47
2017-04-10T05:14:26.913Z,60.65
2017-04-10T05:14:48.705Z,60.72
2017-04-10T05:15:15.182Z,60.80
2017-04-10T05:15:36.882Z,60.60
2017-04-10T05:15:58.654Z,60.40
2017-04-10T05:16:25.147Z,60.07
2017-04-10T05:16:46.942Z,59.80
2017-04-10T05:17:08.626Z,59.97
2017-04-10T05:17:30.324Z,60.05
2017-04-10T05:17:52.018Z,59.91
2017-04-10T05:18:23.272Z,59.92
2017-04-10T05:18:45.115Z,60.11
2017-04-10T05:19:16.373Z,59.98
2017-04-10T05:19:42.962Z,59.86
2017-04-10T05:20:09.429Z,60.06
2017-04-10T05:20:31.331Z,60.27
2017-04-10T05:21:29.756Z,60.36
2017-04-10T05:21:51.460Z,60.18
2017-04-10T05:22:22.709Z,60.29
2017-04-10T05:22:44.476Z,60.17
2017-04-10T05:23:06.172Z,60.13
2017-04-10T05:23:32.649Z,60.72
2017-04-10T05:23:54.447Z,60.88
2017-04-10T05:24:16.218Z,60.97
2017-04-10T05:24:42.651Z,60.72
2017-04-10T05:25:04.350Z,60.53